createdAt,value
2022-10-11T00:00:20.767Z,101404.22
2022-10-11T00:02:54.508Z,101398.25
2022-10-11T00:05:28.848Z,101399.72
2022-10-11T00:08:02.455Z,101401.75
2022-10-11T00:10:36.422Z,101397.16
2022-10-11T00:13:10.358Z,101396.81
2022-10-11T00:15:45.641Z,101393.06
2022-10-11T00:18:19.199Z,101388.00
2022-10-11T00:20:52.842Z,101386.28
2022-10-11T00:23:26.512Z,101382.72
2022-10-11T00:26:01.021Z,101386.47
2022-10-11T00:28:35.782Z,101385.94
2022-10-11T00:31:12.468Z,101381.44
2022-10-11T00:33:46.264Z,101376.00
2022-10-11T00:36:20.177Z,101380.25
2022-10-11T00:38:54.148Z,101380.94
2022-10-11T00:41:27.869Z,101385.84
2022-10-11T00:44:16.400Z,101387.28
2022-10-11T00:46:56.206Z,101391.44
2022-10-11T00:49:37.174Z,101387.88
2022-10-11T00:52:18.904Z,101384.56
2022-10-11T00:54:52.963Z,101385.94
2022-10-11T00:57:29.658Z,101392.88
2022-10-11T01:00:03.862Z,101386.94
2022-10-11T01:02:39.982Z,101384.72
2022-10-11T01:05:29.754Z,101388.41
2022-10-11T01:08:04.958Z,101384.72
2022-10-11T01:10:38.723Z,101382.88
2022-10-11T01:13:21.547Z,101387.25
2022-10-11T01:16:04.885Z,101389.28
2022-10-11T01:18:50.376Z,101384.84
2022-10-11T01:21:40.623Z,101391.03
2022-10-11T01:24:57.172Z,101387.88
2022-10-11T01:27:55.895Z,101386.78
2022-10-11T01:30:33.392Z,101384.72
2022-10-11T01:33:20.255Z,101395.03
2022-10-11T01:36:03.946Z,101384.06
2022-10-11T01:38:44.676Z,101389.28
2022-10-11T01:41:23.945Z,101379.09
2022-10-11T01:44:01.664Z,101378.78
2022-10-11T01:46:37.983Z,101383.56
2022-10-11T01:49:11.764Z,101383.56
2022-10-11T01:51:50.060Z,101380.25
2022-10-11T01:55:03.808Z,101387.41
2022-10-11T01:57:49.318Z,101380.50
2022-10-11T02:00:24.862Z,101370.47
2022-10-11T02:03:19.412Z,101373.50
2022-10-11T02:05:59.356Z,101374.66
2022-10-11T02:08:40.575Z,101368.69
2022-10-11T02:11:21.514Z,101369.25
2022-10-11T02:14:01.098Z,101381.03
2022-10-11T02:16:39.447Z,101377.47
2022-10-11T02:19:20.831Z,101369.63
2022-10-11T02:21:59.607Z,101374.44
2022-10-11T02:24:36.294Z,101372.72
2022-10-11T02:27:12.546Z,101375.28
2022-10-11T02:29:48.053Z,101375.38
2022-10-11T02:32:23.624Z,101359.44
2022-10-11T02:35:02.046Z,101361.44
2022-10-11T02:37:43.206Z,101364.94
2022-10-11T02:40:22.990Z,101369.06
2022-10-11T02:43:01.572Z,101366.19
2022-10-11T02:45:39.728Z,101366.50
2022-10-11T02:48:13.524Z,101363.63
2022-10-11T02:50:49.354Z,101366.34
2022-10-11T02:53:22.781Z,101363.84
2022-10-11T02:55:57.053Z,101362.81
2022-10-11T02:58:30.545Z,101369.28
2022-10-11T03:01:04.440Z,101376.00
2022-10-11T03:03:38.210Z,101376.25
2022-10-11T03:06:12.860Z,101374.34
2022-10-11T03:08:46.365Z,101371.31
2022-10-11T03:11:20.260Z,101370.63
2022-10-11T03:13:53.827Z,101375.59
2022-10-11T03:16:27.642Z,101373.22
2022-10-11T03:19:01.170Z,101376.50
2022-10-11T03:21:36.269Z,101374.78
2022-10-11T03:24:09.992Z,101375.25
2022-10-11T03:26:43.677Z,101373.06
2022-10-11T03:29:17.235Z,101373.94
2022-10-11T03:31:51.014Z,101369.09
2022-10-11T03:34:24.574Z,101369.09
2022-10-11T03:36:59.803Z,101366.22
2022-10-11T03:39:33.377Z,101373.19
2022-10-11T03:42:07.228Z,101369.94
2022-10-11T03:44:41.964Z,101367.91
2022-10-11T03:47:16.088Z,101366.28
2022-10-11T03:49:49.630Z,101365.41
2022-10-11T03:52:24.730Z,101375.00
2022-10-11T03:54:58.394Z,101384.84
2022-10-11T03:57:32.099Z,101390.63
2022-10-11T04:00:07.356Z,101386.31
2022-10-11T04:02:41.313Z,101394.19
2022-10-11T04:05:14.916Z,101395.94
2022-10-11T04:07:50.111Z,101399.22
2022-10-11T04:10:23.948Z,101386.56
2022-10-11T04:12:57.803Z,101397.72
2022-10-11T04:15:31.381Z,101401.88
2022-10-11T04:18:05.291Z,101400.94
2022-10-11T04:20:38.971Z,101402.31
2022-10-11T04:23:14.295Z,101398.25
2022-10-11T04:25:48.545Z,101404.16
2022-10-11T04:28:22.544Z,101405.31
2022-10-11T04:30:56.210Z,101403.19
2022-10-11T04:33:30.148Z,101396.13
2022-10-11T04:36:03.994Z,101406.28
2022-10-11T04:38:39.652Z,101408.28
2022-10-11T04:41:15.623Z,101403.09
2022-10-11T04:43:49.877Z,101403.66
2022-10-11T04:46:23.459Z,101412.19
2022-10-11T04:48:57.472Z,101409.19
2022-10-11T04:51:31.239Z,101414.75
2022-10-11T04:54:06.472Z,101412.75
2022-10-11T04:56:39.989Z,101413.66
2022-10-11T04:59:13.731Z,101423.91
2022-10-11T05:01:47.405Z,101419.50
2022-10-11T05:04:21.240Z,101421.53
2022-10-11T05:06:54.793Z,101416.50
2022-10-11T05:09:30.270Z,101424.03
2022-10-11T05:12:04.745Z,101424.41
2022-10-11T05:14:38.753Z,101418.25
2022-10-11T05:17:12.414Z,101426.59
2022-10-11T05:19:46.047Z,101421.06
2022-10-11T05:22:19.676Z,101422.75
2022-10-11T05:24:54.827Z,101416.88
2022-10-11T05:27:29.449Z,101421.31
2022-10-11T05:30:03.547Z,101421.75
2022-10-11T05:32:37.275Z,101424.06
2022-10-11T05:35:11.448Z,101419.63
2022-10-11T05:37:45.145Z,101422.50
2022-10-11T05:40:20.476Z,101424.50
2022-10-11T05:42:53.241Z,101425.06
2022-10-11T05:45:27.254Z,101430.81
2022-10-11T05:48:00.882Z,101424.28
2022-10-11T05:50:34.591Z,101437.78
2022-10-11T05:53:08.776Z,101441.97
2022-10-11T05:55:45.532Z,101429.97
2022-10-11T05:58:19.183Z,101437.31
2022-10-11T06:00:54.803Z,101438.00
2022-10-11T06:03:28.116Z,101431.31
2022-10-11T06:06:04.647Z,101430.63
2022-10-11T06:08:38.365Z,101432.06
2022-10-11T06:11:15.844Z,101438.50
2022-10-11T06:13:49.390Z,101439.06
2022-10-11T06:16:23.185Z,101429.91
2022-10-11T06:18:57.733Z,101432.22
2022-10-11T06:21:31.485Z,101432.53
2022-10-11T06:24:05.559Z,101430.09
2022-10-11T06:26:41.171Z,101432.25
2022-10-11T06:29:14.798Z,101434.94
2022-10-11T06:31:49.221Z,101431.69
2022-10-11T06:34:23.022Z,101425.69
2022-10-11T06:36:56.900Z,101435.25
2022-10-11T06:39:30.568Z,101430.53
2022-10-11T06:42:05.890Z,101435.41
2022-10-11T06:44:41.582Z,101436.28
2022-10-11T06:47:15.328Z,101442.25
2022-10-11T06:49:48.957Z,101447.09
2022-10-11T06:52:22.831Z,101447.25
2022-10-11T06:54:56.436Z,101452.66
2022-10-11T06:57:31.969Z,101449.09
2022-10-11T07:00:11.700Z,101446.81
2022-10-11T07:02:46.307Z,101444.50
2022-10-11T07:05:19.945Z,101448.50
2022-10-11T07:07:54.089Z,101446.81
2022-10-11T07:10:27.741Z,101456.19
2022-10-11T07:13:03.106Z,101446.16
2022-10-11T07:15:41.390Z,101463.03
2022-10-11T07:18:16.143Z,101464.69
2022-10-11T07:20:49.706Z,101462.63
2022-10-11T07:23:23.583Z,101457.53
2022-10-11T07:25:57.128Z,101458.97
2022-10-11T07:28:32.716Z,101453.03
2022-10-11T07:31:07.497Z,101462.13
2022-10-11T07:33:41.141Z,101465.88
2022-10-11T07:36:15.768Z,101460.31
2022-10-11T07:38:50.831Z,101472.31
2022-10-11T07:41:24.342Z,101474.38
2022-10-11T07:43:59.584Z,101471.47
2022-10-11T07:46:34.369Z,101478.44
2022-10-11T07:49:08.085Z,101479.94
2022-10-11T07:51:41.650Z,101477.91
2022-10-11T07:54:15.509Z,101486.31
2022-10-11T07:56:49.120Z,101488.91
2022-10-11T07:59:24.425Z,101486.91
2022-10-11T08:01:58.085Z,101477.84
2022-10-11T08:04:31.890Z,101478.38
2022-10-11T08:07:05.791Z,101482.28
2022-10-11T08:09:39.650Z,101482.59
2022-10-11T08:12:13.233Z,101481.03
2022-10-11T08:14:48.355Z,101485.97
2022-10-11T08:17:21.946Z,101477.09
2022-10-11T08:19:56.042Z,101469.25
2022-10-11T08:22:29.598Z,101477.78
2022-10-11T08:25:03.779Z,101479.28
2022-10-11T08:27:37.698Z,101479.81
2022-10-11T08:30:14.662Z,101487.22
2022-10-11T08:32:48.248Z,101487.59
2022-10-11T08:35:22.057Z,101488.81
2022-10-11T08:37:55.711Z,101485.56
2022-10-11T08:40:32.786Z,101494.63
2022-10-11T08:43:14.869Z,101501.09
2022-10-11T08:45:55.451Z,101491.59
2022-10-11T08:48:36.528Z,101499.81
2022-10-11T08:51:20.044Z,101500.50
2022-10-11T08:53:59.821Z,101498.78
2022-10-11T08:56:40.193Z,101487.91
2022-10-11T08:59:28.213Z,101485.81
2022-10-11T09:02:17.474Z,101491.03
2022-10-11T09:04:53.783Z,101478.81
2022-10-11T09:07:41.654Z,101484.22
2022-10-11T09:10:40.142Z,101487.25
2022-10-11T09:13:31.792Z,101481.66
2022-10-11T09:16:16.911Z,101483.75
2022-10-11T09:19:27.421Z,101486.50
2022-10-11T09:22:09.906Z,101483.09
2022-10-11T09:25:09.450Z,101481.38
2022-10-11T09:28:02.496Z,101483.63
2022-10-11T09:30:42.120Z,101490.06
2022-10-11T09:33:20.524Z,101488.78
2022-10-11T09:35:58.571Z,101493.28
2022-10-11T09:38:42.206Z,101500.94
2022-10-11T09:41:23.660Z,101490.16
2022-10-11T09:43:57.241Z,101495.16
2022-10-11T09:46:36.704Z,101484.97
2022-10-11T09:49:14.851Z,101485.81
2022-10-11T09:51:55.162Z,101488.94
2022-10-11T09:54:43.775Z,101482.72
2022-10-11T09:57:26.214Z,101480.00
2022-10-11T10:00:03.207Z,101476.06
2022-10-11T10:02:42.773Z,101482.56
2022-10-11T10:05:22.215Z,101483.47
2022-10-11T10:08:23.540Z,101485.16
2022-10-11T10:11:03.325Z,101487.31
2022-10-11T10:13:44.969Z,101480.06
2022-10-11T10:16:25.601Z,101484.44
2022-10-11T10:19:02.126Z,101485.03
2022-10-11T10:21:38.556Z,101481.63
2022-10-11T10:24:21.845Z,101486.69
2022-10-11T10:27:17.197Z,101478.53
2022-10-11T10:30:21.080Z,101476.34
2022-10-11T10:33:00.174Z,101474.28
2022-10-11T10:35:37.183Z,101485.66
2022-10-11T10:38:19.875Z,101482.06
2022-10-11T10:41:00.445Z,101477.50
2022-10-11T10:43:36.336Z,101475.91
2022-10-11T10:46:32.697Z,101475.13
2022-10-11T10:52:43.182Z,101471.34
2022-10-11T10:55:28.853Z,101471.16
2022-10-11T10:58:23.424Z,101465.88
2022-10-11T11:01:03.990Z,101466.34
2022-10-11T11:03:46.560Z,101463.13
2022-10-11T11:06:31.558Z,101463.56
2022-10-11T11:09:27.017Z,101461.69
2022-10-11T11:12:15.608Z,101459.91
2022-10-11T11:14:59.749Z,101464.16
2022-10-11T11:17:47.563Z,101464.56
2022-10-11T11:20:35.446Z,101465.59
2022-10-11T11:23:17.504Z,101465.66
2022-10-11T11:26:00.906Z,101464.13
2022-10-11T11:29:12.052Z,101457.00
2022-10-11T11:32:10.183Z,101460.09
2022-10-11T11:34:48.208Z,101470.91
2022-10-11T11:37:29.646Z,101467.75
2022-10-11T11:40:09.087Z,101462.59
2022-10-11T11:42:47.450Z,101464.38
2022-10-11T11:45:25.465Z,101461.06
2022-10-11T11:48:06.092Z,101461.13
2022-10-11T11:50:43.789Z,101456.97
2022-10-11T11:53:20.792Z,101448.78
2022-10-11T11:56:02.442Z,101450.75
2022-10-11T11:58:44.990Z,101446.22
2022-10-11T12:01:31.620Z,101444.47
2022-10-11T12:04:13.955Z,101448.19
2022-10-11T12:07:15.772Z,101437.59
2022-10-11T12:09:54.637Z,101434.28
2022-10-11T12:12:32.166Z,101437.56
2022-10-11T12:15:21.712Z,101430.88
2022-10-11T12:18:13.902Z,101421.75
2022-10-11T12:21:02.374Z,101430.53
2022-10-11T12:23:48.096Z,101419.97
2022-10-11T12:26:36.685Z,101417.22
2022-10-11T12:29:44.976Z,101412.41
2022-10-11T12:32:55.285Z,101415.59
2022-10-11T12:35:51.626Z,101403.34
2022-10-11T12:38:28.897Z,101401.38
2022-10-11T12:41:40.289Z,101391.78
2022-10-11T12:44:22.816Z,101394.50
2022-10-11T12:47:28.624Z,101395.38
2022-10-11T12:50:19.373Z,101392.78
2022-10-11T12:53:03.338Z,101391.91
2022-10-11T12:55:48.597Z,101384.22
2022-10-11T12:58:27.606Z,101389.44
2022-10-11T13:01:18.309Z,101379.84
2022-10-11T13:04:00.320Z,101382.78
2022-10-11T13:06:38.572Z,101381.16
2022-10-11T13:09:19.673Z,101371.72
2022-10-11T13:11:58.632Z,101369.00
2022-10-11T13:14:37.832Z,101370.97
2022-10-11T13:17:18.529Z,101368.69
2022-10-11T13:20:00.166Z,101360.25
2022-10-11T13:22:36.765Z,101357.25
2022-10-11T13:25:11.135Z,101351.44
2022-10-11T13:27:45.624Z,101354.03
2022-10-11T13:30:21.945Z,101348.59
2022-10-11T13:32:57.763Z,101344.09
2022-10-11T13:35:34.254Z,101345.09
2022-10-11T13:38:10.737Z,101346.56
2022-10-11T13:40:46.280Z,101341.25
2022-10-11T13:43:27.842Z,101336.06
2022-10-11T13:46:05.358Z,101340.78
2022-10-11T13:48:42.588Z,101339.56
2022-10-11T13:51:29.124Z,101342.31
2022-10-11T13:54:05.088Z,101329.50
2022-10-11T13:56:46.814Z,101335.28
2022-10-11T13:59:22.766Z,101337.53
2022-10-11T14:02:00.416Z,101334.13
2022-10-11T14:04:42.675Z,101329.41
2022-10-11T14:07:26.655Z,101326.09
2022-10-11T14:10:00.610Z,101317.00
2022-10-11T14:12:38.692Z,101315.84
2022-10-11T14:15:26.542Z,101321.25
2022-10-11T14:18:01.718Z,101312.53
2022-10-11T14:20:42.155Z,101305.44
2022-10-11T14:23:15.673Z,101301.44
2022-10-11T14:25:49.781Z,101303.03
2022-10-11T14:28:23.398Z,101303.69
2022-10-11T14:30:57.327Z,101305.16
2022-10-11T14:33:31.002Z,101313.44
2022-10-11T14:36:06.964Z,101305.78
2022-10-11T14:38:40.091Z,101304.03
2022-10-11T14:41:13.740Z,101301.78
2022-10-11T14:43:47.348Z,101302.50
2022-10-11T14:46:24.116Z,101301.03
2022-10-11T14:48:57.753Z,101298.69
2022-10-11T14:51:36.613Z,101290.91
2022-10-11T14:54:10.424Z,101290.59
2022-10-11T14:56:44.117Z,101287.34
2022-10-11T14:59:19.684Z,101296.22
2022-10-11T15:01:54.555Z,101287.13
2022-10-11T15:04:28.293Z,101282.97
2022-10-11T15:07:03.991Z,101281.94
2022-10-11T15:09:37.621Z,101277.03
2022-10-11T15:12:11.330Z,101278.72
2022-10-11T15:14:44.851Z,101277.78
2022-10-11T15:17:18.558Z,101277.84
2022-10-11T15:19:52.129Z,101272.47
2022-10-11T15:22:27.609Z,101271.19
2022-10-11T15:25:01.251Z,101262.53
2022-10-11T15:27:35.015Z,101255.31
2022-10-11T15:30:14.800Z,101257.41
2022-10-11T15:32:49.340Z,101248.00
2022-10-11T15:35:24.497Z,101247.16
2022-10-11T15:38:01.710Z,101240.97
2022-10-11T15:40:37.568Z,101237.88
2022-10-11T15:43:11.265Z,101239.44
2022-10-11T15:45:45.063Z,101241.06
2022-10-11T15:48:25.892Z,101234.03
2022-10-11T15:50:59.987Z,101237.56
2022-10-11T15:53:35.665Z,101231.13
2022-10-11T15:56:10.777Z,101230.00
2022-10-11T15:58:45.109Z,101230.53
2022-10-11T16:01:20.915Z,101221.66
2022-10-11T16:03:54.726Z,101219.38
2022-10-11T16:06:29.820Z,101217.84
2022-10-11T16:09:05.183Z,101224.59
2022-10-11T16:11:38.746Z,101218.53
2022-10-11T16:14:12.431Z,101217.19
2022-10-11T16:16:46.099Z,101217.50
2022-10-11T16:19:19.931Z,101213.06
2022-10-11T16:21:53.538Z,101205.91
2022-10-11T16:24:28.883Z,101203.00
2022-10-11T16:27:02.562Z,101201.41
2022-10-11T16:29:36.345Z,101196.09
2022-10-11T16:32:09.877Z,101194.97
2022-10-11T16:34:43.849Z,101207.34
2022-10-11T16:37:17.579Z,101196.09
2022-10-11T16:39:52.572Z,101199.50
2022-10-11T16:42:26.648Z,101199.59
2022-10-11T16:45:00.545Z,101185.16
2022-10-11T16:47:34.080Z,101186.00
2022-10-11T16:50:08.855Z,101197.09
2022-10-11T16:52:42.397Z,101189.13
2022-10-11T16:55:17.723Z,101196.22
2022-10-11T16:57:51.224Z,101186.47
2022-10-11T17:00:25.020Z,101186.94
2022-10-11T17:02:58.631Z,101186.66
2022-10-11T17:05:32.185Z,101178.97
2022-10-11T17:08:05.753Z,101178.75
2022-10-11T17:10:44.667Z,101176.81
2022-10-11T17:13:18.302Z,101172.75
2022-10-11T17:15:51.786Z,101174.53
2022-10-11T17:18:25.268Z,101165.78
2022-10-11T17:21:06.130Z,101167.53
2022-10-11T17:23:39.837Z,101165.91
2022-10-11T17:26:18.962Z,101170.47
2022-10-11T17:28:52.757Z,101170.16
2022-10-11T17:31:26.346Z,101170.72
2022-10-11T17:34:01.042Z,101169.28
2022-10-11T17:36:35.648Z,101168.44
2022-10-11T17:39:11.958Z,101169.50
2022-10-11T17:41:47.477Z,101156.50
2022-10-11T17:44:21.742Z,101162.25
2022-10-11T17:46:56.583Z,101165.25
2022-10-11T17:49:29.466Z,101160.66
2022-10-11T17:52:03.281Z,101158.28
2022-10-11T17:54:37.002Z,101150.50
2022-10-11T17:57:12.112Z,101153.91
2022-10-11T17:59:45.806Z,101161.06
2022-10-11T18:02:19.442Z,101150.31
2022-10-11T18:04:53.136Z,101155.78
2022-10-11T18:07:26.550Z,101152.41
2022-10-11T18:10:00.106Z,101149.16
2022-10-11T18:12:34.343Z,101155.88
2022-10-11T18:15:09.245Z,101152.31
2022-10-11T18:17:42.986Z,101148.03
2022-10-11T18:20:16.152Z,101148.72
2022-10-11T18:22:50.827Z,101145.19
2022-10-11T18:25:23.672Z,101145.38
2022-10-11T18:27:57.857Z,101142.31
2022-10-11T18:30:30.719Z,101136.50
2022-10-11T18:33:03.602Z,101138.91
2022-10-11T18:35:36.407Z,101135.16
2022-10-11T18:38:10.463Z,101141.47
2022-10-11T18:40:47.199Z,101144.69
2022-10-11T18:43:21.661Z,101138.91
2022-10-11T18:46:04.058Z,101142.66
2022-10-11T18:48:37.168Z,101134.13
2022-10-11T18:51:12.451Z,101141.63
2022-10-11T18:53:46.209Z,101142.34
2022-10-11T18:56:21.097Z,101133.69
2022-10-11T18:58:57.190Z,101137.44
2022-10-11T19:01:32.374Z,101136.59
2022-10-11T19:04:06.586Z,101131.63
2022-10-11T19:06:41.749Z,101127.41
2022-10-11T19:09:17.721Z,101133.53
2022-10-11T19:11:51.901Z,101127.56
2022-10-11T19:14:28.432Z,101131.16
2022-10-11T19:17:01.286Z,101132.66
2022-10-11T19:19:34.963Z,101133.19
2022-10-11T19:22:07.813Z,101131.84
2022-10-11T19:24:40.844Z,101130.78
2022-10-11T19:27:13.718Z,101135.88
2022-10-11T19:30:48.088Z,101125.16
2022-10-11T19:33:21.690Z,101134.13
2022-10-11T19:35:55.766Z,101132.44
2022-10-11T19:38:28.540Z,101127.13
2022-10-11T19:41:01.788Z,101131.50
2022-10-11T19:43:35.513Z,101131.00
2022-10-11T19:46:20.203Z,101124.50
2022-10-11T19:48:57.260Z,101120.41
2022-10-11T19:51:35.111Z,101122.78
2022-10-11T19:54:11.396Z,101115.63
2022-10-11T19:56:46.092Z,101116.13
2022-10-11T19:59:19.261Z,101107.22
2022-10-11T20:01:53.545Z,101112.84
2022-10-11T20:04:51.455Z,101115.91
2022-10-11T20:07:19.329Z,101111.94
2022-10-11T20:09:53.076Z,101110.09
2022-10-11T20:12:29.405Z,101108.41
2022-10-11T20:15:03.503Z,101104.31
2022-10-11T20:17:49.576Z,101107.88
2022-10-11T20:20:22.869Z,101109.78
2022-10-11T20:22:55.840Z,101099.53
2022-10-11T20:25:28.933Z,101104.31
2022-10-11T20:28:02.556Z,101098.19
2022-10-11T20:30:36.110Z,101094.59
2022-10-11T20:33:11.334Z,101095.69
2022-10-11T20:35:44.850Z,101092.97
2022-10-11T20:38:17.787Z,101099.66
2022-10-11T20:40:50.618Z,101099.81
2022-10-11T20:43:24.043Z,101099.66
2022-10-11T20:46:02.514Z,101099.03
2022-10-11T20:48:39.118Z,101101.19
2022-10-11T20:51:12.828Z,101103.47
2022-10-11T20:53:46.143Z,101100.38
2022-10-11T20:56:21.435Z,101098.84
2022-10-11T20:58:57.001Z,101091.69
2022-10-11T21:01:32.661Z,101087.94
2022-10-11T21:04:09.044Z,101091.88
2022-10-11T21:06:41.860Z,101099.91
2022-10-11T21:09:16.877Z,101088.81
2022-10-11T21:11:49.971Z,101084.06
2022-10-11T21:14:23.943Z,101090.69
2022-10-11T21:16:57.950Z,101083.53
2022-10-11T21:19:33.070Z,101080.28
2022-10-11T21:22:07.111Z,101085.06
2022-10-11T21:24:40.041Z,101079.44
2022-10-11T21:27:13.819Z,101074.50
2022-10-11T21:29:47.558Z,101074.00
2022-10-11T21:32:21.275Z,101080.66
2022-10-11T21:34:56.393Z,101073.72
2022-10-11T21:37:30.031Z,101083.09
2022-10-11T21:40:02.981Z,101075.56
2022-10-11T21:42:36.171Z,101073.53
2022-10-11T21:45:10.063Z,101077.63
2022-10-11T21:47:44.902Z,101079.34
2022-10-11T21:50:19.278Z,101076.63
2022-10-11T21:52:52.207Z,101066.44
2022-10-11T21:55:26.166Z,101052.81
2022-10-11T21:57:59.794Z,101058.28
2022-10-11T22:00:33.509Z,101060.47
2022-10-11T22:03:07.030Z,101057.94
2022-10-11T22:05:45.800Z,101058.97
2022-10-11T22:08:19.750Z,101057.94
2022-10-11T22:10:58.178Z,101055.03
2022-10-11T22:13:33.567Z,101063.22
2022-10-11T22:16:09.046Z,101064.41
2022-10-11T22:18:43.194Z,101056.59
2022-10-11T22:21:24.120Z,101052.84
2022-10-11T22:23:57.723Z,101042.31
2022-10-11T22:26:32.035Z,101042.13
2022-10-11T22:29:04.989Z,101050.47
2022-10-11T22:31:39.122Z,101033.47
2022-10-11T22:34:11.936Z,101033.47
2022-10-11T22:36:47.909Z,101033.28
2022-10-11T22:39:21.594Z,101035.16
2022-10-11T22:41:55.938Z,101029.22
2022-10-11T22:44:29.552Z,101034.66
2022-10-11T22:47:03.245Z,101033.47
2022-10-11T22:49:36.507Z,101033.13
2022-10-11T22:52:11.662Z,101027.69
2022-10-11T22:54:44.520Z,101021.38
2022-10-11T22:57:18.287Z,101029.72
2022-10-11T22:59:51.982Z,101025.97
2022-10-11T23:02:25.731Z,101018.66
2022-10-11T23:04:58.797Z,101023.94
2022-10-11T23:07:34.397Z,101018.31
2022-10-11T23:10:08.229Z,101013.72
2022-10-11T23:12:41.935Z,101012.34
2022-10-11T23:15:15.734Z,101012.56
2022-10-11T23:17:49.601Z,101002.53
2022-10-11T23:20:23.173Z,101001.97
2022-10-11T23:22:58.489Z,101001.13
2022-10-11T23:25:31.419Z,101000.09
2022-10-11T23:28:05.064Z,101001.81
2022-10-11T23:30:41.121Z,100994.47
2022-10-11T23:33:15.005Z,100987.31
2022-10-11T23:35:48.776Z,100990.53
2022-10-11T23:38:23.200Z,100990.38
2022-10-11T23:40:56.172Z,100988.09
2022-10-11T23:43:29.915Z,100989.81
2022-10-11T23:46:03.501Z,100979.94
2022-10-11T23:48:37.259Z,100985.75
2022-10-11T23:51:11.098Z,100977.22
2022-10-11T23:53:45.503Z,100982.66
2022-10-11T23:56:18.636Z,100982.66
2022-10-11T23:58:52.398Z,100976.88
